sensor_id;sensor_type;location;lat;lon;timestamp;pressure;altitude;pressure_sealevel;temperature;humidity
75188;BME280;63762;51.334;22.108;2023-01-24T00:02:25;103888.73;;;3.26;85.92
75188;BME280;63762;51.334;22.108;2023-01-24T00:12:32;103887.88;;;3.33;85.73
75188;BME280;63762;51.334;22.108;2023-01-24T00:22:40;103881.66;;;3.31;85.65
75188;BME280;63762;51.334;22.108;2023-01-24T00:32:47;103884.31;;;3.32;85.80
75188;BME280;63762;51.334;22.108;2023-01-24T00:42:54;103887.88;;;3.34;85.78
75188;BME280;63762;51.334;22.108;2023-01-24T00:53:01;103886.98;;;3.37;85.67
75188;BME280;63762;51.334;22.108;2023-01-24T01:03:14;103879.90;;;3.36;85.46
75188;BME280;63762;51.334;22.108;2023-01-24T01:13:15;103883.42;;;3.41;85.28
75188;BME280;63762;51.334;22.108;2023-01-24T01:23:23;103885.20;;;3.43;85.24
75188;BME280;63762;51.334;22.108;2023-01-24T01:33:30;103889.66;;;3.47;85.00
75188;BME280;63762;51.334;22.108;2023-01-24T01:43:37;103890.53;;;3.48;85.01
75188;BME280;63762;51.334;22.108;2023-01-24T02:14:17;103885.20;;;3.48;84.87
75188;BME280;63762;51.334;22.108;2023-01-24T02:24:35;103881.66;;;3.43;84.91
75188;BME280;63762;51.334;22.108;2023-01-24T02:34:39;103875.44;;;3.39;85.01
75188;BME280;63762;51.334;22.108;2023-01-24T02:44:47;103880.77;;;3.36;85.61
75188;BME280;63762;51.334;22.108;2023-01-24T02:54:49;103864.80;;;3.32;85.47
75188;BME280;63762;51.334;22.108;2023-01-24T03:04:50;103878.97;;;3.17;85.91
75188;BME280;63762;51.334;22.108;2023-01-24T03:14:51;103854.16;;;3.17;86.11
75188;BME280;63762;51.334;22.108;2023-01-24T03:25:04;103863.91;;;3.27;86.54
75188;BME280;63762;51.334;22.108;2023-01-24T03:35:17;103860.38;;;3.35;85.93
75188;BME280;63762;51.334;22.108;2023-01-24T03:45:24;103863.02;;;3.32;85.66
75188;BME280;63762;51.334;22.108;2023-01-24T03:55:25;103865.70;;;3.34;85.54
75188;BME280;63762;51.334;22.108;2023-01-24T04:05:26;103859.47;;;3.30;85.66
75188;BME280;63762;51.334;22.108;2023-01-24T04:15:30;103858.61;;;3.31;85.50
75188;BME280;63762;51.334;22.108;2023-01-24T04:25:33;103868.34;;;3.32;85.27
75188;BME280;63762;51.334;22.108;2023-01-24T04:35:38;103856.81;;;3.32;84.92
75188;BME280;63762;51.334;22.108;2023-01-24T04:45:45;103859.47;;;3.30;84.90
75188;BME280;63762;51.334;22.108;2023-01-24T04:55:52;103873.68;;;3.35;84.53
75188;BME280;63762;51.334;22.108;2023-01-24T05:05:59;103889.63;;;3.38;84.32
75188;BME280;63762;51.334;22.108;2023-01-24T05:16:07;103874.57;;;3.33;84.42
75188;BME280;63762;51.334;22.108;2023-01-24T05:26:14;103887.85;;;3.37;84.41
75188;BME280;63762;51.334;22.108;2023-01-24T05:36:22;103894.07;;;3.42;84.18
75188;BME280;63762;51.334;22.108;2023-01-24T05:46:28;103907.38;;;3.45;83.89
75188;BME280;63762;51.334;22.108;2023-01-24T05:56:35;103919.80;;;3.46;83.65
75188;BME280;63762;51.334;22.108;2023-01-24T06:06:42;103928.67;;;3.48;83.81
75188;BME280;63762;51.334;22.108;2023-01-24T06:16:49;103938.41;;;3.46;84.01
75188;BME280;63762;51.334;22.108;2023-01-24T06:26:57;103944.66;;;3.50;84.51
75188;BME280;63762;51.334;22.108;2023-01-24T06:47:19;103965.05;;;3.54;84.99
75188;BME280;63762;51.334;22.108;2023-01-24T06:57:20;103978.36;;;3.55;84.54
75188;BME280;63762;51.334;22.108;2023-01-24T07:07:25;103971.27;;;3.57;84.93
75188;BME280;63762;51.334;22.108;2023-01-24T07:17:33;103974.80;;;3.56;84.96
75188;BME280;63762;51.334;22.108;2023-01-24T07:27:44;103989.91;;;3.60;85.22
75188;BME280;63762;51.334;22.108;2023-01-24T07:37:46;103978.38;;;3.66;85.21
75188;BME280;63762;51.334;22.108;2023-01-24T07:47:55;103970.41;;;3.79;85.10
75188;BME280;63762;51.334;22.108;2023-01-24T07:58:02;103975.71;;;3.93;85.03
75188;BME280;63762;51.334;22.108;2023-01-24T08:08:08;103978.36;;;4.03;84.79
75188;BME280;63762;51.334;22.108;2023-01-24T08:18:15;103992.58;;;4.08;84.58
75188;BME280;63762;51.334;22.108;2023-01-24T08:28:23;103988.13;;;4.06;84.52
75188;BME280;63762;51.334;22.108;2023-01-24T08:38:29;103985.46;;;4.04;84.65
75188;BME280;63762;51.334;22.108;2023-01-24T08:48:36;103992.55;;;4.14;84.75
75188;BME280;63762;51.334;22.108;2023-01-24T08:58:43;103982.79;;;4.25;84.71
75188;BME280;63762;51.334;22.108;2023-01-24T09:08:52;103982.73;;;4.40;84.36
75188;BME280;63762;51.334;22.108;2023-01-24T09:18:58;103983.63;;;4.48;84.29
75188;BME280;63762;51.334;22.108;2023-01-24T09:29:05;103982.70;;;4.55;84.02
75188;BME280;63762;51.334;22.108;2023-01-24T09:39:12;103981.80;;;4.61;83.81
75188;BME280;63762;51.334;22.108;2023-01-24T09:59:39;103975.52;;;4.71;83.62
75188;BME280;63762;51.334;22.108;2023-01-24T10:30:41;103936.31;;;4.97;82.96
75188;BME280;63762;51.334;22.108;2023-01-24T10:40:24;103931.82;;;5.04;82.59
75188;BME280;63762;51.334;22.108;2023-01-24T10:50:34;103937.15;;;5.07;82.55
75188;BME280;63762;51.334;22.108;2023-01-24T11:00:41;103917.54;;;5.11;82.58
75188;BME280;63762;51.334;22.108;2023-01-24T11:10:42;103917.54;;;5.11;82.47
75188;BME280;63762;51.334;22.108;2023-01-24T11:20:43;103923.78;;;5.11;82.08
75188;BME280;63762;51.334;22.108;2023-01-24T12:24:42;103918.66;;;4.75;83.73
75188;BME280;63762;51.334;22.108;2023-01-24T12:34:52;103909.73;;;4.79;83.06
75188;BME280;63762;51.334;22.108;2023-01-24T12:45:02;103930.26;;;4.63;83.36
75188;BME280;63762;51.334;22.108;2023-01-24T12:55:13;103929.39;;;4.51;83.59
75188;BME280;63762;51.334;22.108;2023-01-24T13:36:03;103909.75;;;4.75;83.15
75188;BME280;63762;51.334;22.108;2023-01-24T13:46:05;103904.45;;;4.68;83.21
75188;BME280;63762;51.334;22.108;2023-01-24T13:56:06;103891.11;;;4.68;83.09
75188;BME280;63762;51.334;22.108;2023-01-24T14:06:11;103898.29;;;4.57;83.33
75188;BME280;63762;51.334;22.108;2023-01-24T14:26:27;103903.67;;;4.39;83.84
75188;BME280;63762;51.334;22.108;2023-01-24T14:36:36;103906.34;;;4.38;83.78
75188;BME280;63762;51.334;22.108;2023-01-24T14:46:39;103916.99;;;4.41;83.56
75188;BME280;63762;51.334;22.108;2023-01-24T14:56:41;103916.09;;;4.46;83.54
75188;BME280;63762;51.334;22.108;2023-01-24T15:06:42;103909.89;;;4.46;83.60
75188;BME280;63762;51.334;22.108;2023-01-24T15:16:48;103890.32;;;4.50;83.52
75188;BME280;63762;51.334;22.108;2023-01-24T15:26:51;103900.99;;;4.47;83.04
75188;BME280;63762;51.334;22.108;2023-01-24T15:37:00;103901.93;;;4.32;83.41
75188;BME280;63762;51.334;22.108;2023-01-24T15:47:01;103893.93;;;4.35;83.58
75188;BME280;63762;51.334;22.108;2023-01-24T15:57:24;103890.38;;;4.30;83.47
75188;BME280;63762;51.334;22.108;2023-01-24T16:07:26;103899.27;;;4.28;83.54
75188;BME280;63762;51.334;22.108;2023-01-24T16:17:27;103915.27;;;4.25;83.57
75188;BME280;63762;51.334;22.108;2023-01-24T16:27:31;103899.29;;;4.25;83.55
75188;BME280;63762;51.334;22.108;2023-01-24T16:37:33;103895.77;;;4.23;83.55
75188;BME280;63762;51.334;22.108;2023-01-24T16:47:34;103890.38;;;4.26;83.33
75188;BME280;63762;51.334;22.108;2023-01-24T16:57:35;103890.45;;;4.18;83.78
75188;BME280;63762;51.334;22.108;2023-01-24T17:07:36;103890.45;;;4.14;84.10
75188;BME280;63762;51.334;22.108;2023-01-24T17:17:40;103891.31;;;4.17;83.77
75188;BME280;63762;51.334;22.108;2023-01-24T17:27:47;103893.10;;;4.18;83.64
75188;BME280;63762;51.334;22.108;2023-01-24T17:37:54;103886.85;;;4.25;83.42
75188;BME280;63762;51.334;22.108;2023-01-24T17:48:01;103893.10;;;4.21;83.21
75188;BME280;63762;51.334;22.108;2023-01-24T17:58:09;103889.55;;;4.13;83.51
75188;BME280;63762;51.334;22.108;2023-01-24T18:08:15;103902.00;;;4.10;83.84
75188;BME280;63762;51.334;22.108;2023-01-24T18:18:22;103920.66;;;4.07;83.97
75188;BME280;63762;51.334;22.108;2023-01-24T18:28:31;103913.54;;;4.09;83.97
75188;BME280;63762;51.334;22.108;2023-01-24T18:38:37;103886.00;;;4.11;83.78
75188;BME280;63762;51.334;22.108;2023-01-24T18:48:44;103870.90;;;4.13;83.65
75188;BME280;63762;51.334;22.108;2023-01-24T18:58:51;103887.78;;;4.15;83.57
75188;BME280;63762;51.334;22.108;2023-01-24T19:08:59;103871.78;;;4.21;83.20
75188;BME280;63762;51.334;22.108;2023-01-24T19:19:07;103860.24;;;4.18;83.30
75188;BME280;63762;51.334;22.108;2023-01-24T19:29:12;103860.24;;;4.16;83.34
75188;BME280;63762;51.334;22.108;2023-01-24T19:39:20;103873.56;;;4.13;83.11
75188;BME280;63762;51.334;22.108;2023-01-24T19:49:27;103876.24;;;4.06;83.22
75188;BME280;63762;51.334;22.108;2023-01-24T19:59:34;103884.24;;;4.00;83.56
75188;BME280;63762;51.334;22.108;2023-01-24T20:09:41;103868.27;;;4.01;83.72
75188;BME280;63762;51.334;22.108;2023-01-24T20:19:48;103880.71;;;4.05;83.52
75188;BME280;63762;51.334;22.108;2023-01-24T20:29:55;103867.40;;;4.07;83.53
75188;BME280;63762;51.334;22.108;2023-01-24T20:40:03;103866.49;;;4.00;83.53
75188;BME280;63762;51.334;22.108;2023-01-24T20:50:10;103870.05;;;3.99;83.38
75188;BME280;63762;51.334;22.108;2023-01-24T21:00:17;103865.65;;;3.95;83.49
75188;BME280;63762;51.334;22.108;2023-01-24T21:10:24;103859.41;;;4.02;83.49
75188;BME280;63762;51.334;22.108;2023-01-24T21:20:31;103856.73;;;4.01;83.26
75188;BME280;63762;51.334;22.108;2023-01-24T21:30:38;103852.27;;;4.04;83.46
75188;BME280;63762;51.334;22.108;2023-01-24T21:40:45;103851.41;;;4.05;82.93
75188;BME280;63762;51.334;22.108;2023-01-24T21:51:00;103847.85;;;4.00;82.68
75188;BME280;63762;51.334;22.108;2023-01-24T22:01:03;103859.41;;;4.02;82.51
75188;BME280;63762;51.334;22.108;2023-01-24T22:11:07;103849.63;;;4.00;82.74
75188;BME280;63762;51.334;22.108;2023-01-24T22:31:27;103844.34;;;3.92;82.70
75188;BME280;63762;51.334;22.108;2023-01-24T22:41:30;103838.13;;;3.84;83.14
75188;BME280;63762;51.334;22.108;2023-01-24T22:51:35;103825.70;;;3.92;82.94
75188;BME280;63762;51.334;22.108;2023-01-24T23:01:42;103816.81;;;3.92;82.60
75188;BME280;63762;51.334;22.108;2023-01-24T23:11:49;103804.41;;;3.83;82.62
75188;BME280;63762;51.334;22.108;2023-01-24T23:21:56;103803.54;;;3.69;82.84
75188;BME280;63762;51.334;22.108;2023-01-24T23:42:23;103776.05;;;3.70;83.23
75188;BME280;63762;51.334;22.108;2023-01-24T23:52:24;103791.13;;;3.65;83.09
